createdAt,value
2018-01-08T09:39:05.515Z,16.17
2018-01-08T09:41:33.146Z,15.10
2018-01-08T09:44:01.230Z,16.20
2018-01-08T09:46:28.880Z,14.90
2018-01-08T09:48:56.433Z,11.80
2018-01-08T09:51:24.235Z,15.43
2018-01-08T09:53:53.751Z,13.83
2018-01-08T09:56:21.477Z,11.47
2018-01-08T09:58:50.339Z,11.67
2018-01-08T10:01:18.679Z,11.67
2018-01-08T10:03:57.836Z,12.27
2018-01-08T10:06:36.955Z,10.43
2018-01-08T10:09:17.115Z,11.30
2018-01-08T10:11:57.114Z,10.80
2018-01-08T10:14:36.387Z,11.20
2018-01-08T10:17:16.523Z,11.40
2018-01-08T10:20:03.624Z,11.20
2018-01-08T10:22:31.119Z,9.33
2018-01-08T10:24:59.383Z,10.97
2018-01-08T10:27:26.930Z,5.20
2018-01-08T10:29:54.382Z,7.60
2018-01-08T10:32:21.970Z,7.40
2018-01-08T10:34:49.431Z,6.10
2018-01-08T10:37:16.891Z,6.73
2018-01-08T10:39:44.372Z,7.10
2018-01-08T10:42:17.556Z,6.20
2018-01-08T10:44:51.523Z,4.93
2018-01-08T10:47:24.702Z,5.00
2018-01-08T10:49:57.907Z,6.23
2018-01-08T10:52:25.910Z,6.03
2018-01-08T10:55:10.817Z,3.30
2018-01-08T10:57:38.306Z,5.50
2018-01-08T11:00:05.802Z,6.37
2018-01-08T11:02:39.747Z,3.70
2018-01-08T11:05:07.230Z,3.43
2018-01-08T11:07:34.733Z,4.17
2018-01-08T11:10:02.990Z,3.83
2018-01-08T11:12:30.471Z,5.50
2018-01-08T11:14:58.711Z,2.83
2018-01-08T11:17:26.202Z,7.03
2018-01-08T11:19:54.438Z,3.37
2018-01-08T11:22:21.900Z,3.57
2018-01-08T11:26:16.511Z,4.50
2018-01-08T11:28:44.767Z,3.73
2018-01-08T11:31:12.236Z,3.70
2018-01-08T11:33:39.729Z,2.83
2018-01-08T11:36:07.264Z,3.43
2018-01-08T11:38:34.765Z,3.47
2018-01-08T11:41:02.274Z,4.37
2018-01-08T11:43:29.709Z,2.63
2018-01-08T11:45:57.202Z,3.80
2018-01-08T11:48:24.706Z,2.63
2018-01-08T11:50:52.192Z,3.17
2018-01-08T11:53:19.733Z,4.93
2018-01-08T11:55:47.253Z,4.87
2018-01-08T11:58:14.711Z,7.27
2018-01-08T12:00:42.210Z,2.63
2018-01-08T12:03:09.718Z,4.90
2018-01-08T12:05:37.217Z,3.00
2018-01-08T12:08:05.477Z,4.80
2018-01-08T12:10:34.263Z,4.00
2018-01-08T12:13:01.780Z,3.10
2018-01-08T12:15:30.757Z,5.57
2018-01-08T12:17:58.274Z,1.93
2018-01-08T12:20:25.904Z,3.70
2018-01-08T12:22:53.396Z,2.47
2018-01-08T12:25:20.855Z,4.27
2018-01-08T12:27:48.366Z,4.33
2018-01-08T12:30:15.851Z,3.90
2018-01-08T12:32:43.342Z,2.83
2018-01-08T12:35:10.794Z,2.50
2018-01-08T12:37:38.274Z,3.90
2018-01-08T12:40:05.733Z,4.23
2018-01-08T12:42:33.265Z,4.70
2018-01-08T12:45:01.538Z,2.33
2018-01-08T12:47:28.995Z,2.33
2018-01-08T12:49:56.483Z,3.80
2018-01-08T12:52:24.016Z,2.07
2018-01-08T12:54:51.563Z,3.57
2018-01-08T12:57:19.033Z,2.50
2018-01-08T12:59:46.548Z,1.53
2018-01-08T13:02:14.030Z,4.00
2018-01-08T13:04:41.504Z,2.60
2018-01-08T13:07:09.008Z,2.43
2018-01-08T13:09:36.507Z,3.00
2018-01-08T13:12:04.743Z,4.30
2018-01-08T13:14:32.237Z,3.97
2018-01-08T13:16:59.776Z,2.40
2018-01-08T13:19:28.377Z,2.70
2018-01-08T13:21:55.875Z,4.90
2018-01-08T13:24:23.598Z,2.50
2018-01-08T13:26:51.362Z,3.27
2018-01-08T13:29:18.930Z,2.47
2018-01-08T13:31:46.992Z,2.97
2018-01-08T13:34:15.038Z,5.20
2018-01-08T13:36:43.173Z,3.03
2018-01-08T13:39:11.254Z,3.43
2018-01-08T13:41:39.895Z,5.33
2018-01-08T13:44:08.177Z,2.93
2018-01-08T13:46:36.677Z,6.57
2018-01-08T13:49:04.968Z,5.17
2018-01-08T13:51:33.318Z,3.10
2018-01-08T13:54:01.426Z,2.70
2018-01-08T13:56:29.130Z,2.53
2018-01-08T13:58:57.146Z,4.23
2018-01-08T14:01:24.746Z,3.97
2018-01-08T14:03:52.974Z,5.90
2018-01-08T14:06:21.183Z,2.37
2018-01-08T14:08:48.954Z,3.53
2018-01-08T14:11:16.712Z,2.43
2018-01-08T14:13:44.277Z,2.37
2018-01-08T14:16:11.984Z,3.00
2018-01-08T14:18:39.487Z,2.07
2018-01-08T14:21:07.145Z,2.43
2018-01-08T14:23:34.791Z,2.50
2018-01-08T14:26:02.388Z,2.40
2018-01-08T14:28:30.096Z,2.37
2018-01-08T14:30:58.068Z,2.13
2018-01-08T14:33:25.655Z,3.43
2018-01-08T14:35:53.206Z,4.07
2018-01-08T14:38:21.248Z,2.90
2018-01-08T14:40:49.544Z,2.70
2018-01-08T14:43:18.047Z,2.47
2018-01-08T14:45:45.591Z,3.23
2018-01-08T14:48:13.238Z,3.83
2018-01-08T14:50:40.925Z,1.90
2018-01-08T14:53:08.604Z,3.67
2018-01-08T14:55:36.700Z,2.13
2018-01-08T14:58:04.908Z,3.07
2018-01-08T15:00:33.081Z,2.57
2018-01-08T15:03:01.259Z,3.83
2018-01-08T15:05:29.972Z,2.77
2018-01-08T15:07:57.760Z,3.07
2018-01-08T15:10:25.655Z,2.60
2018-01-08T15:12:53.954Z,4.00
2018-01-08T15:15:21.513Z,4.43
2018-01-08T15:17:50.236Z,4.50
2018-01-08T15:20:18.744Z,2.57
2018-01-08T15:22:47.346Z,5.00
2018-01-08T15:25:15.950Z,4.27
2018-01-08T15:27:48.605Z,2.83
2018-01-08T15:30:16.639Z,4.20
2018-01-08T15:32:45.346Z,2.60
2018-01-08T15:35:12.957Z,4.13
2018-01-08T15:37:40.646Z,2.50
2018-01-08T15:40:08.561Z,4.70
2018-01-08T15:42:36.155Z,5.40
2018-01-08T15:45:04.998Z,4.37
2018-01-08T15:47:33.287Z,3.90
2018-01-08T15:50:01.847Z,6.23
2018-01-08T15:52:29.777Z,5.03
2018-01-08T15:54:57.987Z,6.57
2018-01-08T15:57:25.945Z,5.33
2018-01-08T15:59:54.689Z,5.37
2018-01-08T16:02:23.111Z,4.63
2018-01-08T16:04:51.199Z,4.73
2018-01-08T16:07:20.147Z,5.77
2018-01-08T16:09:48.755Z,5.00
2018-01-08T16:12:18.430Z,5.00
2018-01-08T16:14:45.998Z,6.63
2018-01-08T16:17:13.503Z,6.17
2018-01-08T16:19:41.060Z,10.20
2018-01-08T16:22:08.548Z,6.33
2018-01-08T16:24:36.044Z,6.47
2018-01-08T16:27:04.752Z,5.80
2018-01-08T16:29:32.590Z,4.67
2018-01-08T16:32:00.070Z,5.33
2018-01-08T16:34:27.527Z,5.87
2018-01-08T16:36:54.976Z,5.10
2018-01-08T16:39:23.430Z,8.30
2018-01-08T16:41:50.870Z,9.93
2018-01-08T16:44:18.358Z,12.67
2018-01-08T16:46:45.820Z,21.00
2018-01-08T16:49:13.306Z,14.93
2018-01-08T16:51:40.767Z,8.90
2018-01-08T16:54:09.003Z,8.03
2018-01-08T16:56:36.490Z,7.00
2018-01-08T16:59:03.976Z,5.27
2018-01-08T17:01:31.558Z,3.90
2018-01-08T17:03:59.039Z,3.63
2018-01-08T17:06:26.514Z,4.33
2018-01-08T17:08:54.002Z,6.77
2018-01-08T17:11:21.514Z,4.20
2018-01-08T17:13:49.747Z,4.43
2018-01-08T17:16:17.246Z,5.70
2018-01-08T17:18:44.705Z,7.17
2018-01-08T17:21:12.183Z,4.47
2018-01-08T17:23:39.667Z,7.03
2018-01-08T17:26:07.149Z,4.50
2018-01-08T17:28:34.630Z,6.90
2018-01-08T17:31:02.119Z,5.97
2018-01-08T17:33:29.575Z,6.47
2018-01-08T17:35:57.041Z,7.13
2018-01-08T17:38:25.280Z,6.03
2018-01-08T17:40:52.765Z,5.53
2018-01-08T17:43:20.245Z,6.47
2018-01-08T17:45:47.748Z,5.10
2018-01-08T17:48:15.218Z,6.70
2018-01-08T17:50:42.695Z,7.20
2018-01-08T17:53:10.163Z,5.90
2018-01-08T17:55:37.634Z,8.87
2018-01-08T17:58:05.122Z,6.73
2018-01-08T18:00:32.618Z,7.70
2018-01-08T18:03:00.084Z,7.17
2018-01-08T18:05:27.554Z,9.97
2018-01-08T18:07:55.032Z,9.53
2018-01-08T18:10:22.562Z,9.00
2018-01-08T18:12:50.041Z,8.53
2018-01-08T18:15:17.550Z,10.53
2018-01-08T18:17:45.039Z,7.07
2018-01-08T18:20:12.550Z,7.37
2018-01-08T18:22:40.055Z,8.77
2018-01-08T18:25:07.514Z,6.40
2018-01-08T18:27:35.079Z,9.77
2018-01-08T18:30:02.590Z,9.43
2018-01-08T18:32:30.060Z,9.33
2018-01-08T18:34:57.557Z,8.67
2018-01-08T18:37:25.026Z,7.87
2018-01-08T18:39:52.603Z,9.07
2018-01-08T18:42:20.082Z,7.97
2018-01-08T18:44:47.584Z,8.67
2018-01-08T18:47:15.068Z,9.67
2018-01-08T18:49:42.528Z,8.60
2018-01-08T18:52:10.041Z,9.27
2018-01-08T18:54:37.535Z,10.13
2018-01-08T18:57:05.764Z,11.80
2018-01-08T18:59:33.244Z,8.13
2018-01-08T19:02:00.818Z,9.07
2018-01-08T19:04:28.643Z,10.03
2018-01-08T19:06:57.199Z,9.53
2018-01-08T19:09:24.801Z,8.60
2018-01-08T19:11:52.345Z,10.80
2018-01-08T19:14:19.858Z,12.50
2018-01-08T19:16:47.624Z,9.10
2018-01-08T19:19:15.321Z,17.80
2018-01-08T19:21:43.070Z,12.10
2018-01-08T19:24:10.853Z,12.73
2018-01-08T19:26:39.111Z,10.70
2018-01-08T19:29:06.995Z,9.00
2018-01-08T19:31:35.441Z,7.73
2018-01-08T19:34:03.876Z,8.20
2018-01-08T19:36:32.222Z,8.90
2018-01-08T19:38:59.772Z,8.97
2018-01-08T19:41:27.470Z,8.23
2018-01-08T19:43:55.057Z,9.73
2018-01-08T19:46:22.755Z,10.37
2018-01-08T19:48:50.439Z,10.03
2018-01-08T19:51:17.998Z,9.80
2018-01-08T19:53:45.727Z,11.13
2018-01-08T19:56:14.362Z,10.60
2018-01-08T19:58:41.924Z,9.67
2018-01-08T20:01:10.182Z,9.80
2018-01-08T20:03:37.686Z,7.53
2018-01-08T20:06:05.308Z,7.70
2018-01-08T20:08:32.813Z,7.27
2018-01-08T20:11:00.414Z,9.47
2018-01-08T20:13:28.009Z,11.97
2018-01-08T20:15:55.509Z,9.33
2018-01-08T20:18:23.975Z,7.17
2018-01-08T20:20:51.559Z,9.43
2018-01-08T20:23:20.227Z,6.50
2018-01-08T20:25:47.872Z,8.13
2018-01-08T20:28:15.535Z,7.33
2018-01-08T20:30:43.153Z,6.37
2018-01-08T20:33:11.980Z,6.87
2018-01-08T20:35:41.367Z,6.13
2018-01-08T20:38:09.527Z,6.93
2018-01-08T20:40:37.883Z,7.27
2018-01-08T20:43:06.370Z,7.07
2018-01-08T20:45:35.001Z,5.27
2018-01-08T20:48:03.330Z,4.07
2018-01-08T20:50:31.632Z,5.87
2018-01-08T20:52:59.944Z,5.50
2018-01-08T20:55:29.154Z,4.50
2018-01-08T20:57:58.379Z,6.27
2018-01-08T21:00:26.717Z,6.60
2018-01-08T21:02:54.844Z,4.73
2018-01-08T21:05:23.117Z,4.43
2018-01-08T21:07:51.409Z,5.03
2018-01-08T21:10:19.959Z,7.43
2018-01-08T21:12:47.874Z,5.00
2018-01-08T21:15:16.552Z,6.90
2018-01-08T21:17:44.102Z,4.77
2018-01-08T21:20:12.323Z,3.93
2018-01-08T21:22:39.809Z,6.00
2018-01-08T21:25:07.283Z,5.23
2018-01-08T21:27:34.786Z,6.27
2018-01-08T21:30:02.284Z,5.23
2018-01-08T21:32:29.780Z,5.20
2018-01-08T21:34:57.318Z,5.70
2018-01-08T21:37:24.810Z,8.60
2018-01-08T21:39:52.321Z,5.07
2018-01-08T21:42:19.828Z,9.43
2018-01-08T21:44:48.061Z,9.50
2018-01-08T21:47:15.584Z,8.60
2018-01-08T21:49:43.096Z,7.00
2018-01-08T21:52:10.838Z,10.80
2018-01-08T21:54:38.341Z,9.03
2018-01-08T21:57:05.807Z,10.03
2018-01-08T21:59:33.327Z,6.17
2018-01-08T22:02:00.798Z,7.47
2018-01-08T22:04:28.279Z,6.10
2018-01-08T22:06:56.525Z,7.63
2018-01-08T22:09:24.016Z,6.40
2018-01-08T22:11:51.534Z,4.77
2018-01-08T22:14:19.837Z,7.87
2018-01-08T22:16:57.833Z,6.30
2018-01-08T22:19:26.055Z,5.93
2018-01-08T22:21:53.549Z,10.87
2018-01-08T22:24:21.041Z,8.07
2018-01-08T22:26:48.512Z,5.50
2018-01-08T22:29:16.070Z,8.20
2018-01-08T22:31:43.562Z,5.00
2018-01-08T22:34:11.062Z,4.73
2018-01-08T22:36:38.535Z,4.43
2018-01-08T22:39:06.006Z,5.47
2018-01-08T22:41:33.498Z,6.77
2018-01-08T22:44:00.962Z,5.73
2018-01-08T22:46:28.478Z,4.43
2018-01-08T22:48:55.946Z,6.00
2018-01-08T22:51:23.425Z,5.50
2018-01-08T22:53:50.916Z,7.03
2018-01-08T22:56:18.378Z,5.10
2018-01-08T22:58:45.870Z,4.07
2018-01-08T23:01:13.322Z,4.47
2018-01-08T23:03:40.818Z,4.73
2018-01-08T23:06:08.350Z,7.07
2018-01-08T23:08:35.828Z,5.63
2018-01-08T23:11:03.291Z,4.83
2018-01-08T23:13:30.804Z,4.60
2018-01-08T23:15:59.075Z,4.90
2018-01-08T23:18:26.591Z,4.13
2018-01-08T23:20:54.862Z,4.57
2018-01-08T23:23:22.364Z,5.57
2018-01-08T23:25:50.598Z,6.57
2018-01-08T23:28:18.100Z,5.17
2018-01-08T23:30:45.575Z,5.83
2018-01-08T23:33:23.771Z,7.27
2018-01-08T23:35:51.518Z,7.07
2018-01-08T23:38:19.796Z,4.67
2018-01-08T23:40:48.046Z,5.13
2018-01-08T23:43:15.542Z,5.93
2018-01-08T23:45:43.087Z,4.50
2018-01-08T23:48:10.522Z,5.87
2018-01-08T23:50:38.002Z,5.30
2018-01-08T23:53:05.531Z,6.23
2018-01-08T23:55:33.759Z,6.00
2018-01-08T23:58:01.237Z,7.70
